createdAt,value
2017-09-24T00:01:07.789Z,9.87
2017-09-24T00:03:36.528Z,13.47
2017-09-24T00:06:05.293Z,9.77
2017-09-24T00:08:37.703Z,10.03
2017-09-24T00:11:06.516Z,10.63
2017-09-24T00:13:35.229Z,13.10
2017-09-24T00:16:03.925Z,9.20
2017-09-24T00:21:05.415Z,9.60
2017-09-24T00:23:34.151Z,10.13
2017-09-24T00:26:02.785Z,9.40
2017-09-24T00:28:33.829Z,9.53
2017-09-24T00:31:02.787Z,11.03
2017-09-24T00:33:31.386Z,10.47
2017-09-24T00:36:00.182Z,10.30
2017-09-24T00:38:28.905Z,11.33
2017-09-24T00:40:57.674Z,11.33
2017-09-24T00:43:26.387Z,11.13
2017-09-24T00:45:55.135Z,11.23
2017-09-24T00:48:23.991Z,15.00
2017-09-24T00:50:52.703Z,9.83
2017-09-24T00:53:21.472Z,9.27
2017-09-24T00:55:49.900Z,11.37
2017-09-24T00:58:18.295Z,11.33
2017-09-24T01:00:47.049Z,11.97
2017-09-24T01:03:15.835Z,10.33
2017-09-24T01:05:44.581Z,19.23
2017-09-24T01:08:13.281Z,10.37
2017-09-24T01:10:42.088Z,10.17
2017-09-24T01:13:10.907Z,12.67
2017-09-24T01:15:39.636Z,11.10
2017-09-24T01:18:08.433Z,12.50
2017-09-24T01:20:36.853Z,9.47
2017-09-24T01:23:05.708Z,9.10
2017-09-24T01:25:34.149Z,10.40
2017-09-24T01:28:02.554Z,11.40
2017-09-24T01:30:33.065Z,12.10
2017-09-24T01:33:01.803Z,12.37
2017-09-24T01:35:30.305Z,11.23
2017-09-24T01:37:58.751Z,11.43
2017-09-24T01:40:27.504Z,10.00
2017-09-24T01:42:56.334Z,12.77
2017-09-24T01:45:25.091Z,9.63
2017-09-24T01:47:53.823Z,11.20
2017-09-24T01:50:22.679Z,11.97
2017-09-24T01:52:51.403Z,10.87
2017-09-24T01:55:20.223Z,10.77
2017-09-24T01:57:49.028Z,9.87
2017-09-24T02:00:17.794Z,11.97
2017-09-24T02:02:46.528Z,9.07
2017-09-24T02:05:15.350Z,10.70
2017-09-24T02:07:44.036Z,10.03
2017-09-24T02:10:12.830Z,10.63
2017-09-24T02:12:41.538Z,13.20
2017-09-24T02:15:10.301Z,10.60
2017-09-24T02:17:39.114Z,10.30
2017-09-24T02:20:07.872Z,9.93
2017-09-24T02:22:36.614Z,14.00
2017-09-24T02:25:05.409Z,10.77
2017-09-24T02:27:34.157Z,10.37
2017-09-24T02:30:02.923Z,13.00
2017-09-24T02:32:31.727Z,10.13
2017-09-24T02:35:00.470Z,9.17
2017-09-24T02:37:29.248Z,13.33
2017-09-24T02:39:58.046Z,10.53
2017-09-24T02:42:26.808Z,14.57
2017-09-24T02:44:55.629Z,11.07
2017-09-24T02:47:24.423Z,9.67
2017-09-24T02:49:53.171Z,11.23
2017-09-24T02:52:21.784Z,10.30
2017-09-24T02:54:50.653Z,10.70
2017-09-24T02:57:19.389Z,19.73
2017-09-24T02:59:48.124Z,11.07
2017-09-24T03:02:16.833Z,13.97
2017-09-24T03:04:45.619Z,10.40
2017-09-24T03:07:14.331Z,12.43
2017-09-24T03:09:43.105Z,11.07
2017-09-24T03:12:11.821Z,10.73
2017-09-24T03:14:40.536Z,13.30
2017-09-24T03:17:09.278Z,12.20
2017-09-24T03:19:38.061Z,11.67
2017-09-24T03:22:06.825Z,12.83
2017-09-24T03:24:35.582Z,12.70
2017-09-24T03:27:04.354Z,12.93
2017-09-24T03:29:33.077Z,11.30
2017-09-24T03:32:01.857Z,14.40
2017-09-24T03:34:30.610Z,13.37
2017-09-24T03:36:59.349Z,14.20
2017-09-24T03:39:28.101Z,20.20
2017-09-24T03:41:56.797Z,24.30
2017-09-24T03:44:25.538Z,17.33
2017-09-24T03:46:54.228Z,16.90
2017-09-24T03:49:22.982Z,14.60
2017-09-24T03:51:51.695Z,12.47
2017-09-24T03:54:20.405Z,15.63
2017-09-24T03:56:49.144Z,14.30
2017-09-24T03:59:17.857Z,12.53
2017-09-24T04:01:46.603Z,14.33
2017-09-24T04:04:15.330Z,17.70
2017-09-24T04:06:44.087Z,16.73
2017-09-24T04:09:12.834Z,13.03
2017-09-24T04:11:41.584Z,12.17
2017-09-24T04:14:10.314Z,12.77
2017-09-24T04:16:39.073Z,11.47
2017-09-24T04:19:07.817Z,13.20
2017-09-24T04:21:36.632Z,12.80
2017-09-24T04:24:05.353Z,14.63
2017-09-24T04:26:34.123Z,11.77
2017-09-24T04:29:02.889Z,11.50
2017-09-24T04:31:31.655Z,13.43
2017-09-24T04:34:00.366Z,11.53
2017-09-24T04:36:29.185Z,13.27
2017-09-24T04:38:58.002Z,15.93
2017-09-24T04:41:26.785Z,11.13
2017-09-24T04:43:55.508Z,11.97
2017-09-24T04:46:24.205Z,13.30
2017-09-24T04:48:52.944Z,21.20
2017-09-24T04:51:21.656Z,13.10
2017-09-24T04:53:50.411Z,10.63
2017-09-24T04:56:18.971Z,9.97
2017-09-24T04:58:47.725Z,12.07
2017-09-24T05:01:16.470Z,12.57
2017-09-24T05:03:45.221Z,13.47
2017-09-24T05:06:14.024Z,11.77
2017-09-24T05:08:42.795Z,14.77
2017-09-24T05:11:11.577Z,11.87
2017-09-24T05:13:40.287Z,12.37
2017-09-24T05:16:09.119Z,12.93
2017-09-24T05:18:38.487Z,16.40
2017-09-24T05:21:07.244Z,16.47
2017-09-24T05:23:36.006Z,16.33
2017-09-24T05:26:04.732Z,17.57
2017-09-24T05:28:36.096Z,11.60
2017-09-24T05:31:04.876Z,13.73
2017-09-24T05:33:33.656Z,12.93
2017-09-24T05:36:02.468Z,18.60
2017-09-24T05:38:34.310Z,13.40
2017-09-24T05:41:03.162Z,13.60
2017-09-24T05:43:31.968Z,12.90
2017-09-24T05:46:00.729Z,16.43
2017-09-24T05:48:29.420Z,15.20
2017-09-24T05:50:58.233Z,15.20
2017-09-24T05:53:26.945Z,16.00
2017-09-24T05:55:55.700Z,14.00
2017-09-24T05:58:24.430Z,20.27
2017-09-24T06:00:53.150Z,19.10
2017-09-24T06:03:21.933Z,16.73
2017-09-24T06:05:50.651Z,18.03
2017-09-24T06:08:19.381Z,15.63
2017-09-24T06:10:47.966Z,17.93
2017-09-24T06:13:16.547Z,20.70
2017-09-24T06:15:45.283Z,19.40
2017-09-24T06:18:14.097Z,19.20
2017-09-24T06:20:42.843Z,21.17
2017-09-24T06:23:11.564Z,22.03
2017-09-24T06:25:40.413Z,17.70
2017-09-24T06:28:09.166Z,21.30
2017-09-24T06:30:37.958Z,27.03
2017-09-24T06:33:06.740Z,20.97
2017-09-24T06:35:39.547Z,20.93
2017-09-24T06:38:08.183Z,22.03
2017-09-24T06:40:36.913Z,17.80
2017-09-24T06:43:05.705Z,17.37
2017-09-24T06:45:34.447Z,19.10
2017-09-24T06:48:03.211Z,18.80
2017-09-24T06:50:32.042Z,19.53
2017-09-24T06:53:00.807Z,19.57
2017-09-24T06:55:29.640Z,16.60
2017-09-24T06:57:58.395Z,18.13
2017-09-24T07:00:27.152Z,16.70
2017-09-24T07:02:55.944Z,17.57
2017-09-24T07:05:24.718Z,17.43
2017-09-24T07:07:53.504Z,14.57
2017-09-24T07:10:22.824Z,15.10
2017-09-24T07:12:51.545Z,15.70
2017-09-24T07:15:20.294Z,17.43
2017-09-24T07:17:49.038Z,17.53
2017-09-24T07:20:17.815Z,14.77
2017-09-24T07:22:46.617Z,14.70
2017-09-24T07:25:15.366Z,12.30
2017-09-24T07:27:44.177Z,14.57
2017-09-24T07:30:12.806Z,14.13
2017-09-24T07:32:41.624Z,13.20
2017-09-24T07:35:10.427Z,15.47
2017-09-24T07:37:39.114Z,17.80
2017-09-24T07:40:07.699Z,13.67
2017-09-24T07:42:36.511Z,14.17
2017-09-24T07:45:05.282Z,13.63
2017-09-24T07:47:34.004Z,13.23
2017-09-24T07:50:02.788Z,13.37
2017-09-24T07:52:31.535Z,12.70
2017-09-24T07:55:00.304Z,13.43
2017-09-24T07:57:28.929Z,10.90
2017-09-24T07:59:57.675Z,11.60
2017-09-24T08:02:26.493Z,13.17
2017-09-24T08:04:55.208Z,12.13
2017-09-24T08:07:23.962Z,14.10
2017-09-24T08:09:52.787Z,11.67
2017-09-24T08:12:21.581Z,15.23
2017-09-24T08:14:50.317Z,12.20
2017-09-24T08:17:19.042Z,11.33
2017-09-24T08:19:47.807Z,16.40
2017-09-24T08:22:17.936Z,12.70
2017-09-24T08:24:46.700Z,13.07
2017-09-24T08:27:15.474Z,15.70
2017-09-24T08:29:44.200Z,9.80
2017-09-24T08:32:12.952Z,10.07
2017-09-24T08:34:41.773Z,12.03
2017-09-24T08:37:10.529Z,15.70
2017-09-24T08:39:39.437Z,12.50
2017-09-24T08:42:08.279Z,17.60
2017-09-24T08:44:37.053Z,9.27
2017-09-24T08:47:05.821Z,17.43
2017-09-24T08:49:34.558Z,14.27
2017-09-24T08:52:03.345Z,12.90
2017-09-24T08:54:32.110Z,11.40
2017-09-24T08:57:00.915Z,15.07
2017-09-24T08:59:29.763Z,14.43
2017-09-24T09:01:58.626Z,13.20
2017-09-24T09:04:27.468Z,9.80
2017-09-24T09:06:56.298Z,9.07
2017-09-24T09:09:25.067Z,17.67
2017-09-24T09:11:53.863Z,14.67
2017-09-24T09:14:22.735Z,18.20
2017-09-24T09:16:51.574Z,10.20
2017-09-24T09:19:20.372Z,13.30
2017-09-24T09:21:49.247Z,12.00
2017-09-24T09:24:18.117Z,11.03
2017-09-24T09:26:47.034Z,13.20
2017-09-24T09:29:18.385Z,10.87
2017-09-24T09:31:47.270Z,11.97
2017-09-24T09:34:27.306Z,21.00
2017-09-24T09:36:56.235Z,16.80
2017-09-24T09:39:25.979Z,14.47
2017-09-24T09:41:54.993Z,11.53
2017-09-24T09:44:36.822Z,15.20
2017-09-24T09:47:16.776Z,21.47
2017-09-24T09:49:45.666Z,20.87
2017-09-24T09:52:14.544Z,17.77
2017-09-24T09:54:43.442Z,13.57
2017-09-24T09:57:12.289Z,13.47
2017-09-24T09:59:41.238Z,18.00
2017-09-24T10:02:10.131Z,15.83
2017-09-24T10:04:39.009Z,16.30
2017-09-24T10:07:18.859Z,18.73
2017-09-24T10:09:58.664Z,22.67
2017-09-24T10:12:27.307Z,16.30
2017-09-24T10:14:56.070Z,16.00
2017-09-24T10:17:24.779Z,23.03
2017-09-24T10:19:53.515Z,17.10
2017-09-24T10:22:22.429Z,17.00
2017-09-24T10:24:51.349Z,23.43
2017-09-24T10:27:21.538Z,16.33
2017-09-24T10:30:01.564Z,17.67
2017-09-24T10:32:30.304Z,15.90
2017-09-24T10:34:59.032Z,19.53
2017-09-24T10:37:27.955Z,22.73
2017-09-24T10:39:56.827Z,21.57
2017-09-24T10:42:25.697Z,15.90
2017-09-24T10:44:54.663Z,18.50
2017-09-24T10:47:23.454Z,15.87
2017-09-24T10:49:52.381Z,19.47
2017-09-24T10:52:21.225Z,18.70
2017-09-24T10:54:50.060Z,21.13
2017-09-24T10:57:18.963Z,18.20
2017-09-24T10:59:47.846Z,18.67
2017-09-24T11:02:16.740Z,18.60
2017-09-24T11:04:46.263Z,19.87
2017-09-24T11:07:15.137Z,28.83
2017-09-24T11:09:44.854Z,20.50
2017-09-24T11:12:13.758Z,19.80
2017-09-24T11:14:42.642Z,21.67
2017-09-24T11:17:11.563Z,19.40
2017-09-24T11:19:40.441Z,19.83
2017-09-24T11:22:09.368Z,19.90
2017-09-24T11:24:38.358Z,28.53
2017-09-24T11:27:07.386Z,20.90
2017-09-24T11:29:36.278Z,20.30
2017-09-24T11:32:05.063Z,21.83
2017-09-24T11:34:35.031Z,21.63
2017-09-24T11:37:03.854Z,17.80
2017-09-24T11:39:32.811Z,22.67
2017-09-24T11:42:01.658Z,18.47
2017-09-24T11:44:30.591Z,26.00
2017-09-24T11:46:59.587Z,22.70
2017-09-24T11:49:29.427Z,17.60
2017-09-24T11:51:58.482Z,22.63
2017-09-24T11:54:27.368Z,26.87
2017-09-24T11:56:58.134Z,19.87
2017-09-24T11:59:27.064Z,22.63
2017-09-24T12:01:56.008Z,20.07
2017-09-24T12:04:24.890Z,30.63
2017-09-24T12:06:54.760Z,23.10
2017-09-24T12:09:23.675Z,27.63
2017-09-24T12:11:52.562Z,23.97
2017-09-24T12:14:21.486Z,32.27
2017-09-24T12:16:50.448Z,28.93
2017-09-24T12:19:19.298Z,25.93
2017-09-24T12:21:48.275Z,24.90
2017-09-24T12:24:17.192Z,30.57
2017-09-24T12:26:46.083Z,24.17
2017-09-24T12:29:14.977Z,26.37
2017-09-24T12:31:43.702Z,33.63
2017-09-24T12:34:12.629Z,29.07
2017-09-24T12:36:41.577Z,25.67
2017-09-24T12:39:10.545Z,34.23
2017-09-24T12:41:40.354Z,24.30
2017-09-24T12:44:09.272Z,24.40
2017-09-24T12:46:41.834Z,29.23
2017-09-24T12:49:10.867Z,27.23
2017-09-24T12:51:39.828Z,26.07
2017-09-24T12:54:08.712Z,27.13
2017-09-24T12:56:37.774Z,33.73
2017-09-24T12:59:06.627Z,35.73
2017-09-24T13:01:36.827Z,27.80
2017-09-24T13:04:08.631Z,24.03
2017-09-24T13:06:37.482Z,36.00
2017-09-24T13:09:06.045Z,28.90
2017-09-24T13:11:34.992Z,27.50
2017-09-24T13:14:04.059Z,31.60
2017-09-24T13:16:33.009Z,28.50
2017-09-24T13:19:01.894Z,30.10
2017-09-24T13:21:30.898Z,24.50
2017-09-24T13:23:59.890Z,25.87
2017-09-24T13:26:28.747Z,23.70
2017-09-24T13:28:57.609Z,25.70
2017-09-24T13:31:26.392Z,27.57
2017-09-24T13:33:55.273Z,27.70
2017-09-24T13:36:24.279Z,25.13
2017-09-24T13:38:53.147Z,25.67
2017-09-24T13:41:21.864Z,30.33
2017-09-24T13:43:50.768Z,23.47
2017-09-24T13:46:19.704Z,23.07
2017-09-24T13:48:48.529Z,29.90
2017-09-24T13:51:17.227Z,27.60
2017-09-24T13:53:46.175Z,30.00
2017-09-24T13:56:15.048Z,30.30
2017-09-24T13:58:43.942Z,26.23
2017-09-24T14:01:12.696Z,26.77
2017-09-24T14:03:41.643Z,31.47
2017-09-24T14:06:14.208Z,23.67
2017-09-24T14:08:44.169Z,20.43
2017-09-24T14:11:14.325Z,28.50
2017-09-24T14:13:43.357Z,25.20
2017-09-24T14:16:12.262Z,26.77
2017-09-24T14:18:41.026Z,32.57
2017-09-24T14:21:09.967Z,25.77
2017-09-24T14:23:38.913Z,29.70
2017-09-24T14:26:08.187Z,22.70
2017-09-24T14:28:37.660Z,22.93
2017-09-24T14:31:07.356Z,23.33
2017-09-24T14:33:36.107Z,25.00
2017-09-24T14:36:05.007Z,23.47
2017-09-24T14:38:37.055Z,27.03
2017-09-24T14:41:05.961Z,25.83
2017-09-24T14:43:35.848Z,28.17
2017-09-24T14:46:04.664Z,32.03
2017-09-24T14:48:36.975Z,23.60
2017-09-24T14:51:09.588Z,26.90
2017-09-24T14:53:39.527Z,30.77
2017-09-24T14:56:10.332Z,25.73
2017-09-24T14:58:40.465Z,30.20
2017-09-24T15:01:11.034Z,24.47
2017-09-24T15:03:39.797Z,26.90
2017-09-24T15:06:16.120Z,21.13
2017-09-24T15:08:44.937Z,20.43
2017-09-24T15:11:13.832Z,24.93
2017-09-24T15:13:42.526Z,26.10
2017-09-24T15:16:11.248Z,28.47
2017-09-24T15:18:39.882Z,28.07
2017-09-24T15:21:08.673Z,25.97
2017-09-24T15:23:37.643Z,42.80
2017-09-24T15:26:06.472Z,21.97
2017-09-24T15:28:37.940Z,39.40
2017-09-24T15:31:06.699Z,37.57
2017-09-24T15:33:36.101Z,28.83
2017-09-24T15:36:05.702Z,28.43
2017-09-24T15:38:37.469Z,25.53
2017-09-24T15:41:06.436Z,27.60
2017-09-24T15:43:35.388Z,32.70
2017-09-24T15:46:04.084Z,23.97
2017-09-24T15:48:36.555Z,22.40
2017-09-24T15:51:05.368Z,25.90
2017-09-24T15:53:33.974Z,25.23
2017-09-24T15:56:02.659Z,23.67
2017-09-24T15:58:36.262Z,24.50
2017-09-24T16:01:05.049Z,28.93
2017-09-24T16:03:33.847Z,28.57
2017-09-24T16:06:02.616Z,26.17
2017-09-24T16:08:35.634Z,24.07
2017-09-24T16:11:04.312Z,25.43
2017-09-24T16:13:34.587Z,26.57
2017-09-24T16:16:03.434Z,24.20
2017-09-24T16:18:35.481Z,26.87
2017-09-24T16:21:04.258Z,22.53
2017-09-24T16:23:41.615Z,28.00
2017-09-24T16:26:15.331Z,22.50
2017-09-24T16:28:49.960Z,28.40
2017-09-24T16:31:18.627Z,24.40
2017-09-24T16:33:49.456Z,26.83
2017-09-24T16:36:19.072Z,26.77
2017-09-24T16:38:48.851Z,30.50
2017-09-24T16:41:32.502Z,28.13
2017-09-24T16:44:03.817Z,28.63
2017-09-24T16:49:10.471Z,31.27
2017-09-24T16:51:45.837Z,31.93
2017-09-24T16:54:24.795Z,25.30
2017-09-24T16:57:02.706Z,25.80
2017-09-24T16:59:38.928Z,22.53
2017-09-24T17:02:15.267Z,31.13
2017-09-24T17:04:47.481Z,21.67
2017-09-24T17:07:21.794Z,27.70
2017-09-24T17:09:52.801Z,29.00
2017-09-24T17:12:25.644Z,35.17
2017-09-24T17:15:03.534Z,23.40
2017-09-24T17:17:39.779Z,27.87
2017-09-24T17:20:11.566Z,25.87
2017-09-24T17:22:43.128Z,23.07
2017-09-24T17:25:15.646Z,20.03
2017-09-24T17:27:46.618Z,24.63
2017-09-24T17:30:17.579Z,20.13
2017-09-24T17:32:49.704Z,25.73
2017-09-24T17:35:18.990Z,34.63
2017-09-24T17:37:52.503Z,27.40
2017-09-24T17:40:22.370Z,28.90
2017-09-24T17:42:53.177Z,31.20
2017-09-24T17:45:25.809Z,28.47
2017-09-24T17:47:55.919Z,19.27
2017-09-24T17:50:30.209Z,24.43
2017-09-24T17:53:09.034Z,26.33
2017-09-24T17:55:43.951Z,26.10
2017-09-24T18:00:58.658Z,19.53
2017-09-24T18:03:30.140Z,21.60
2017-09-24T18:06:13.589Z,24.87
2017-09-24T18:08:46.671Z,17.17
2017-09-24T18:11:29.554Z,22.17
2017-09-24T18:14:07.665Z,21.63
2017-09-24T18:16:46.013Z,29.33
2017-09-24T18:19:17.583Z,18.80
2017-09-24T18:21:50.755Z,29.23
2017-09-24T18:24:23.977Z,25.97
2017-09-24T18:26:54.878Z,21.63
2017-09-24T18:29:27.596Z,20.50
2017-09-24T18:32:03.463Z,17.00
2017-09-24T18:34:39.215Z,24.23
2017-09-24T18:37:14.056Z,18.43
2017-09-24T18:39:43.767Z,21.90
2017-09-24T18:42:27.495Z,17.27
2017-09-24T18:47:55.846Z,16.57
2017-09-24T18:50:36.380Z,16.10
2017-09-24T18:53:19.083Z,17.10
2017-09-24T18:55:56.183Z,19.13
2017-09-24T18:58:35.046Z,16.83
2017-09-24T19:01:17.036Z,19.97
2017-09-24T19:03:53.808Z,16.63
2017-09-24T19:06:29.028Z,17.93
2017-09-24T19:09:02.058Z,21.87
2017-09-24T19:11:40.466Z,20.27
2017-09-24T19:16:53.921Z,18.37
2017-09-24T19:19:29.758Z,17.40
2017-09-24T19:24:51.111Z,14.40
2017-09-24T19:27:21.460Z,23.30
2017-09-24T19:29:53.731Z,17.63
2017-09-24T19:32:26.739Z,14.07
2017-09-24T19:35:02.940Z,13.83
2017-09-24T19:37:44.201Z,14.13
2017-09-24T19:40:22.813Z,17.77
2017-09-24T19:42:52.321Z,18.00
2017-09-24T19:45:25.101Z,15.93
2017-09-24T19:48:00.215Z,15.53
2017-09-24T19:50:38.018Z,14.80
2017-09-24T19:53:12.442Z,14.17
2017-09-24T19:55:52.816Z,17.03
2017-09-24T19:58:34.009Z,16.10
2017-09-24T20:01:09.313Z,18.43
2017-09-24T20:03:43.856Z,17.13
2017-09-24T20:09:09.483Z,18.37
2017-09-24T20:11:49.554Z,13.90
2017-09-24T20:14:21.264Z,16.97
2017-09-24T20:19:45.215Z,19.40
2017-09-24T20:22:24.215Z,15.13
2017-09-24T20:25:03.791Z,15.10
2017-09-24T20:30:51.461Z,18.53
2017-09-24T20:33:25.298Z,20.57
2017-09-24T20:35:57.929Z,18.57
2017-09-24T20:38:31.310Z,16.70
2017-09-24T20:41:05.184Z,19.70
2017-09-24T20:43:40.451Z,15.20
2017-09-24T20:46:32.473Z,17.13
2017-09-24T20:49:24.694Z,17.33
2017-09-24T20:52:16.525Z,18.77
2017-09-24T20:55:05.100Z,20.43
2017-09-24T20:57:49.670Z,17.90
2017-09-24T21:00:36.287Z,15.07
2017-09-24T21:03:21.578Z,13.20
2017-09-24T21:06:06.817Z,17.73
2017-09-24T21:17:31.262Z,16.97
2017-09-24T21:23:16.013Z,15.60
2017-09-24T21:31:40.241Z,17.47
2017-09-24T21:34:25.969Z,15.63
2017-09-24T21:37:11.099Z,18.93
2017-09-24T21:39:57.929Z,18.90
2017-09-24T21:42:39.216Z,17.33
2017-09-24T21:45:25.482Z,19.80
2017-09-24T21:48:10.737Z,18.30
2017-09-24T21:50:56.457Z,20.33
2017-09-24T21:53:44.623Z,20.70
2017-09-24T21:56:31.656Z,17.23
2017-09-24T21:59:12.162Z,23.87
2017-09-24T22:01:52.431Z,27.70
2017-09-24T22:04:32.277Z,28.40
2017-09-24T22:07:12.719Z,22.83
2017-09-24T22:09:53.911Z,21.57
2017-09-24T22:12:36.387Z,20.80
2017-09-24T22:15:18.617Z,27.27
2017-09-24T22:18:01.816Z,24.60
2017-09-24T22:20:42.100Z,25.10
2017-09-24T22:23:23.081Z,26.40
2017-09-24T22:26:04.774Z,26.37
2017-09-24T22:28:48.943Z,27.67
2017-09-24T22:31:30.009Z,25.57
2017-09-24T22:34:05.551Z,25.77
2017-09-24T22:36:38.052Z,33.70
2017-09-24T22:39:11.633Z,33.50
2017-09-24T22:41:43.791Z,22.57
2017-09-24T22:44:16.125Z,31.03
2017-09-24T22:46:47.047Z,32.73
2017-09-24T22:49:18.998Z,28.73
2017-09-24T22:52:02.175Z,30.40
2017-09-24T22:54:35.706Z,28.80
2017-09-24T22:57:06.787Z,29.37
2017-09-24T22:59:42.476Z,31.43
2017-09-24T23:02:12.673Z,30.63
2017-09-24T23:04:44.267Z,25.77
2017-09-24T23:07:19.085Z,26.57
2017-09-24T23:09:54.745Z,33.23
2017-09-24T23:12:26.910Z,27.20
2017-09-24T23:14:59.481Z,34.00
2017-09-24T23:17:31.443Z,30.43
2017-09-24T23:20:08.165Z,27.47
2017-09-24T23:22:41.249Z,28.43
2017-09-24T23:25:11.433Z,27.83
2017-09-24T23:27:43.691Z,28.97
2017-09-24T23:30:13.328Z,30.87
2017-09-24T23:32:42.891Z,34.40
2017-09-24T23:35:12.664Z,36.90
2017-09-24T23:37:41.420Z,30.40
2017-09-24T23:40:10.160Z,26.60
2017-09-24T23:42:38.915Z,24.47
2017-09-24T23:45:07.771Z,28.50
2017-09-24T23:47:36.467Z,26.50
2017-09-24T23:50:05.259Z,28.90
2017-09-24T23:52:33.983Z,30.33
2017-09-24T23:55:02.853Z,28.97
2017-09-24T23:57:31.681Z,29.60
